Time;durP1;ratioP1;P1;durP2;ratioP2;P2;SDS_P1;SDS_P2;PMS_P1;PMS_P2;Temp;Humidity;BMP_temperature;BMP_pressure;BME280_temperature;BME280_humidity;BME280_pressure;Samples;Min_cycle;Max_cycle;Signal;HPM_P1;HPM_P2
2022/02/28 00:01:52;;;;;;;10.50;4.40;;;;;;;;;;5026822;28;20308;-67
2022/02/28 00:04:18;;;;;;;11.30;4.90;;;;;;;;;;5022823;28;20241;-66
2022/02/28 00:06:44;;;;;;;10.57;4.67;;;;;;;;;;5020275;28;20269;-66
2022/02/28 00:09:09;;;;;;;13.33;4.83;;;;;;;;;;5026158;28;20328;-67
2022/02/28 00:11:35;;;;;;;17.03;5.20;;;;;;;;;;5029246;28;20197;-66
2022/02/28 00:14:00;;;;;;;10.43;5.27;;;;;;;;;;5025890;28;20213;-66
2022/02/28 00:16:25;;;;;;;13.27;5.67;;;;;;;;;;5024843;28;20209;-66
2022/02/28 00:18:51;;;;;;;11.63;5.10;;;;;;;;;;5027874;28;20178;-67
2022/02/28 00:21:16;;;;;;;14.80;5.30;;;;;;;;;;5024919;28;20806;-66
2022/02/28 00:23:41;;;;;;;13.60;5.13;;;;;;;;;;5027568;28;20186;-67
2022/02/28 00:26:07;;;;;;;13.77;5.27;;;;;;;;;;5027208;28;20244;-66
2022/02/28 00:28:32;;;;;;;8.50;4.23;;;;;;;;;;5026141;28;20307;-67
2022/02/28 00:30:58;;;;;;;15.73;4.83;;;;;;;;;;5025993;28;20426;-67
2022/02/28 00:33:23;;;;;;;14.57;5.53;;;;;;;;;;5027359;28;20264;-67
2022/02/28 00:35:48;;;;;;;13.03;5.37;;;;;;;;;;5005245;28;20192;-67
2022/02/28 00:38:14;;;;;;;11.23;4.93;;;;;;;;;;5023381;28;20182;-67
2022/02/28 00:40:40;;;;;;;12.97;5.00;;;;;;;;;;5019772;28;20362;-66
2022/02/28 00:43:06;;;;;;;10.43;5.40;;;;;;;;;;5025983;28;20182;-67
2022/02/28 00:45:31;;;;;;;13.70;6.47;;;;;;;;;;5022056;28;20189;-66
2022/02/28 00:47:57;;;;;;;12.93;5.60;;;;;;;;;;5022279;28;20186;-66
2022/02/28 00:50:22;;;;;;;13.50;5.40;;;;;;;;;;5026879;28;20178;-66
2022/02/28 00:52:47;;;;;;;9.43;5.20;;;;;;;;;;5024346;28;20259;-66
2022/02/28 00:55:13;;;;;;;14.00;5.13;;;;;;;;;;5025979;28;20174;-66
2022/02/28 00:57:39;;;;;;;10.87;4.83;;;;;;;;;;5023592;28;20190;-66
2022/02/28 01:00:07;;;;;;;12.13;5.07;;;;;;;;;;5027353;28;20299;-68
2022/02/28 01:02:33;;;;;;;11.90;4.83;;;;;;;;;;5023251;28;20288;-66
2022/02/28 01:04:58;;;;;;;13.20;5.83;;;;;;;;;;5026765;28;20200;-67
2022/02/28 01:07:24;;;;;;;11.87;4.43;;;;;;;;;;5023900;28;22008;-67
2022/02/28 01:09:49;;;;;;;14.40;5.20;;;;;;;;;;5025532;28;20174;-67
2022/02/28 01:12:15;;;;;;;11.07;5.77;;;;;;;;;;5021633;28;20649;-67
2022/02/28 01:14:40;;;;;;;11.03;5.67;;;;;;;;;;5033530;28;20583;-67
2022/02/28 01:17:06;;;;;;;10.03;5.30;;;;;;;;;;5020554;28;20375;-67
2022/02/28 01:19:32;;;;;;;12.37;5.73;;;;;;;;;;5025286;28;20185;-67
2022/02/28 01:21:57;;;;;;;12.63;6.03;;;;;;;;;;5025221;28;20265;-67
2022/02/28 01:24:22;;;;;;;12.73;5.40;;;;;;;;;;5021568;28;20270;-67
2022/02/28 01:26:48;;;;;;;16.63;5.70;;;;;;;;;;5022635;28;20689;-67
2022/02/28 01:29:14;;;;;;;15.60;5.93;;;;;;;;;;5027083;28;20190;-67
2022/02/28 01:31:39;;;;;;;20.70;6.90;;;;;;;;;;5025163;28;20210;-67
2022/02/28 01:34:05;;;;;;;13.97;6.30;;;;;;;;;;5024916;28;20490;-67
2022/02/28 01:36:30;;;;;;;16.50;6.27;;;;;;;;;;5022364;28;20281;-67
2022/02/28 01:38:56;;;;;;;13.77;6.53;;;;;;;;;;5024629;28;20200;-68
2022/02/28 01:41:21;;;;;;;15.17;6.30;;;;;;;;;;5023409;28;20198;-67
2022/02/28 01:43:47;;;;;;;18.47;7.00;;;;;;;;;;5023594;28;20210;-67
2022/02/28 01:46:12;;;;;;;11.93;6.33;;;;;;;;;;5024455;28;20182;-67
2022/02/28 01:48:37;;;;;;;17.43;6.83;;;;;;;;;;5022295;28;20190;-67
2022/02/28 01:51:03;;;;;;;16.13;6.40;;;;;;;;;;5021473;28;20213;-68
2022/02/28 01:53:29;;;;;;;17.30;6.70;;;;;;;;;;5023523;28;20182;-66
2022/02/28 01:55:54;;;;;;;13.63;6.73;;;;;;;;;;5023716;28;20531;-67
2022/02/28 01:58:19;;;;;;;16.97;7.17;;;;;;;;;;5027470;28;20555;-67
2022/02/28 02:00:45;;;;;;;17.47;7.23;;;;;;;;;;5023745;28;20230;-67
2022/02/28 02:03:10;;;;;;;14.17;7.00;;;;;;;;;;5021492;28;20214;-67
2022/02/28 02:05:36;;;;;;;12.47;6.00;;;;;;;;;;5023337;28;20186;-67
2022/02/28 02:08:08;;;;;;;11.33;6.37;;;;;;;;;;5021897;28;20618;-67
2022/02/28 02:10:34;;;;;;;13.13;6.27;;;;;;;;;;5015698;28;20244;-68
2022/02/28 02:13:00;;;;;;;18.13;7.07;;;;;;;;;;5024147;28;20185;-67
2022/02/28 02:15:26;;;;;;;17.37;6.60;;;;;;;;;;5015750;28;20186;-67
2022/02/28 02:17:54;;;;;;;10.60;6.50;;;;;;;;;;5022042;28;20239;-67
2022/02/28 02:20:19;;;;;;;20.30;7.20;;;;;;;;;;5026816;28;20198;-68
2022/02/28 02:22:58;;;;;;;14.93;6.40;;;;;;;;;;5022149;28;20189;-68
2022/02/28 02:25:24;;;;;;;16.50;6.63;;;;;;;;;;5014760;28;20189;-67
2022/02/28 02:27:49;;;;;;;16.87;6.43;;;;;;;;;;5022217;28;20186;-67
2022/02/28 02:30:15;;;;;;;16.53;6.73;;;;;;;;;;5023628;28;20202;-67
2022/02/28 02:32:41;;;;;;;17.80;6.83;;;;;;;;;;5020641;28;20263;-67
2022/02/28 02:35:07;;;;;;;17.60;7.23;;;;;;;;;;5017488;28;20182;-67
2022/02/28 02:37:33;;;;;;;19.73;7.20;;;;;;;;;;5020583;28;20186;-67
2022/02/28 02:39:58;;;;;;;19.60;7.03;;;;;;;;;;5024759;28;20192;-67
2022/02/28 02:42:23;;;;;;;17.17;6.93;;;;;;;;;;5020109;28;20239;-67
2022/02/28 02:44:49;;;;;;;13.90;6.97;;;;;;;;;;5027316;28;20343;-67
2022/02/28 02:47:14;;;;;;;15.27;6.47;;;;;;;;;;5020986;28;20830;-67
2022/02/28 02:49:39;;;;;;;17.23;6.97;;;;;;;;;;5024642;28;20673;-67
2022/02/28 02:52:06;;;;;;;16.23;7.43;;;;;;;;;;5020149;28;20197;-67
2022/02/28 02:54:32;;;;;;;15.00;7.10;;;;;;;;;;5026587;28;20190;-67
2022/02/28 02:56:57;;;;;;;15.33;6.87;;;;;;;;;;5021724;28;20181;-66
2022/02/28 02:59:23;;;;;;;21.83;7.70;;;;;;;;;;5019077;28;20181;-67
2022/02/28 03:01:48;;;;;;;17.07;6.73;;;;;;;;;;5021350;28;20315;-67
2022/02/28 03:04:13;;;;;;;16.30;6.50;;;;;;;;;;5025195;28;20710;-67
2022/02/28 03:06:39;;;;;;;17.80;7.23;;;;;;;;;;5020622;28;20209;-67
2022/02/28 03:09:04;;;;;;;14.87;6.83;;;;;;;;;;5031862;28;20186;-67
2022/02/28 03:11:29;;;;;;;14.90;6.83;;;;;;;;;;5024341;28;20190;-67
2022/02/28 03:13:55;;;;;;;16.27;7.77;;;;;;;;;;5027230;28;20190;-67
2022/02/28 03:16:20;;;;;;;19.87;7.80;;;;;;;;;;5026348;28;20774;-67
2022/02/28 03:18:45;;;;;;;13.70;6.70;;;;;;;;;;5028687;28;20209;-67
2022/02/28 03:21:11;;;;;;;18.67;7.87;;;;;;;;;;5027729;28;20224;-67
2022/02/28 03:23:36;;;;;;;16.47;7.37;;;;;;;;;;5023674;28;20186;-67
2022/02/28 03:26:02;;;;;;;17.47;8.30;;;;;;;;;;5023450;28;20194;-67
2022/02/28 03:28:27;;;;;;;18.03;7.40;;;;;;;;;;5034509;28;20174;-67
2022/02/28 03:30:53;;;;;;;22.23;7.37;;;;;;;;;;5023545;28;20206;-67
2022/02/28 03:33:19;;;;;;;19.87;8.23;;;;;;;;;;5026228;28;20530;-67
2022/02/28 03:35:44;;;;;;;19.93;8.67;;;;;;;;;;5024708;28;20310;-67
2022/02/28 03:38:10;;;;;;;17.27;7.97;;;;;;;;;;5016831;28;20198;-67
2022/02/28 03:40:35;;;;;;;16.80;7.50;;;;;;;;;;5025194;28;20632;-67
2022/02/28 03:43:05;;;;;;;15.87;7.50;;;;;;;;;;5027488;28;20273;-67
2022/02/28 03:45:33;;;;;;;18.80;7.50;;;;;;;;;;5028189;28;20190;-67
2022/02/28 03:47:59;;;;;;;15.13;7.37;;;;;;;;;;5021980;28;20673;-67
2022/02/28 03:50:24;;;;;;;13.97;7.27;;;;;;;;;;5025445;28;20205;-67
2022/02/28 03:52:51;;;;;;;19.57;7.47;;;;;;;;;;5024901;28;20233;-67
2022/02/28 03:55:16;;;;;;;17.43;7.67;;;;;;;;;;5028365;28;20198;-67
2022/02/28 03:57:42;;;;;;;16.03;7.60;;;;;;;;;;5024022;28;20235;-67
2022/02/28 04:00:08;;;;;;;18.77;7.87;;;;;;;;;;5027884;28;20178;-67
2022/02/28 04:02:33;;;;;;;15.13;7.27;;;;;;;;;;5025967;28;20178;-67
2022/02/28 04:04:59;;;;;;;19.33;7.17;;;;;;;;;;5024528;28;20193;-67
2022/02/28 04:07:24;;;;;;;15.63;7.40;;;;;;;;;;5025534;28;20249;-67
2022/02/28 04:09:49;;;;;;;14.07;7.30;;;;;;;;;;5027970;28;20182;-68
2022/02/28 04:12:15;;;;;;;14.10;7.07;;;;;;;;;;5024827;28;20170;-67
2022/02/28 04:14:41;;;;;;;15.20;6.90;;;;;;;;;;5026454;28;20277;-68
2022/02/28 04:17:06;;;;;;;18.37;6.97;;;;;;;;;;5022677;28;20706;-67
2022/02/28 04:19:31;;;;;;;18.10;7.90;;;;;;;;;;5028540;28;20174;-67
2022/02/28 04:21:57;;;;;;;17.90;7.23;;;;;;;;;;5025758;28;20331;-68
2022/02/28 04:24:22;;;;;;;14.30;6.87;;;;;;;;;;5014789;28;20524;-67
2022/02/28 04:26:48;;;;;;;16.60;7.30;;;;;;;;;;5021653;28;20220;-67
2022/02/28 04:29:13;;;;;;;14.40;6.87;;;;;;;;;;5028229;28;20194;-67
2022/02/28 04:31:39;;;;;;;16.57;7.10;;;;;;;;;;5024729;28;20206;-67
2022/02/28 04:34:05;;;;;;;20.57;7.90;;;;;;;;;;5022497;28;20177;-67
2022/02/28 04:36:30;;;;;;;13.30;6.70;;;;;;;;;;5025882;28;20193;-67
2022/02/28 04:38:57;;;;;;;16.40;7.23;;;;;;;;;;5024453;28;20257;-67
2022/02/28 04:41:24;;;;;;;15.20;6.93;;;;;;;;;;5024946;28;20231;-67
2022/02/28 04:43:49;;;;;;;16.93;7.37;;;;;;;;;;5016265;28;20273;-67
2022/02/28 04:46:14;;;;;;;16.73;7.33;;;;;;;;;;5022162;28;20274;-67
2022/02/28 04:48:40;;;;;;;11.40;6.43;;;;;;;;;;5024583;28;20193;-67
2022/02/28 04:51:05;;;;;;;13.00;7.03;;;;;;;;;;5024949;28;20187;-67
2022/02/28 04:53:30;;;;;;;21.70;7.23;;;;;;;;;;5015977;28;20201;-66
2022/02/28 04:55:58;;;;;;;17.27;7.37;;;;;;;;;;5023705;28;20192;-67
2022/02/28 04:58:23;;;;;;;15.57;7.37;;;;;;;;;;5028172;28;20192;-67
2022/02/28 05:00:49;;;;;;;15.43;7.20;;;;;;;;;;5023255;28;20689;-67
2022/02/28 05:03:14;;;;;;;16.80;6.97;;;;;;;;;;5035900;28;20181;-66
2022/02/28 05:05:40;;;;;;;16.07;7.50;;;;;;;;;;5031349;28;20194;-67
2022/02/28 05:08:05;;;;;;;15.87;7.67;;;;;;;;;;5031039;28;20263;-67
2022/02/28 05:10:31;;;;;;;17.13;6.87;;;;;;;;;;5024349;28;20213;-67
2022/02/28 05:12:56;;;;;;;18.17;7.33;;;;;;;;;;5031505;28;20281;-67
2022/02/28 05:15:21;;;;;;;13.40;7.20;;;;;;;;;;5031039;28;20674;-66
2022/02/28 05:17:47;;;;;;;16.80;7.27;;;;;;;;;;5027255;28;20189;-66
2022/02/28 05:20:13;;;;;;;17.13;7.53;;;;;;;;;;5033794;28;20185;-67
2022/02/28 05:22:38;;;;;;;13.63;7.30;;;;;;;;;;5031483;28;20193;-66
2022/02/28 05:25:04;;;;;;;18.70;8.40;;;;;;;;;;5026360;28;20193;-67
2022/02/28 05:27:41;;;;;;;17.60;8.30;;;;;;;;;;5018299;28;20186;-67
2022/02/28 05:30:08;;;;;;;18.83;8.07;;;;;;;;;;5020701;28;20201;-67
2022/02/28 05:32:34;;;;;;;20.77;8.17;;;;;;;;;;5024908;28;20247;-67
2022/02/28 05:35:00;;;;;;;16.83;8.10;;;;;;;;;;5021550;28;20194;-67
2022/02/28 05:37:25;;;;;;;16.83;6.33;;;;;;;;;;5024646;28;20182;-67
2022/02/28 05:39:51;;;;;;;18.77;7.67;;;;;;;;;;5024124;28;20221;-67
2022/02/28 05:42:16;;;;;;;17.90;7.63;;;;;;;;;;5023120;28;20279;-67
2022/02/28 05:44:41;;;;;;;22.27;8.27;;;;;;;;;;5023472;28;20265;-67
2022/02/28 05:47:07;;;;;;;19.13;8.40;;;;;;;;;;5038149;28;20273;-67
2022/02/28 05:49:32;;;;;;;20.80;7.87;;;;;;;;;;5026188;28;20190;-67
2022/02/28 05:51:58;;;;;;;18.10;8.07;;;;;;;;;;5025063;28;20345;-67
2022/02/28 05:54:23;;;;;;;20.83;9.67;;;;;;;;;;5022761;28;20189;-67
2022/02/28 05:56:48;;;;;;;19.33;7.73;;;;;;;;;;5027138;28;20237;-67
2022/02/28 05:59:14;;;;;;;17.60;7.50;;;;;;;;;;5022268;28;20654;-67
2022/02/28 06:01:39;;;;;;;17.30;7.53;;;;;;;;;;5027637;28;20255;-67
2022/02/28 06:04:05;;;;;;;20.10;7.00;;;;;;;;;;5022014;28;20193;-67
2022/02/28 06:06:31;;;;;;;16.43;7.23;;;;;;;;;;5019966;28;20197;-67
2022/02/28 06:08:56;;;;;;;14.03;7.53;;;;;;;;;;5023053;28;20192;-67
2022/02/28 06:11:22;;;;;;;18.90;7.90;;;;;;;;;;5022345;28;20236;-67
2022/02/28 06:13:47;;;;;;;18.70;7.87;;;;;;;;;;5023132;28;20189;-67
2022/02/28 06:16:12;;;;;;;16.40;8.27;;;;;;;;;;5024964;28;20683;-67
2022/02/28 06:18:38;;;;;;;24.17;7.93;;;;;;;;;;5032896;28;20342;-67
2022/02/28 06:21:04;;;;;;;17.40;7.50;;;;;;;;;;5023992;28;21410;-67
2022/02/28 06:23:29;;;;;;;22.37;7.30;;;;;;;;;;5032087;28;20184;-67
2022/02/28 06:25:55;;;;;;;16.63;7.73;;;;;;;;;;5022002;28;20196;-67
2022/02/28 06:28:21;;;;;;;15.10;7.43;;;;;;;;;;5024031;28;20261;-67
2022/02/28 06:30:47;;;;;;;19.30;8.20;;;;;;;;;;5023886;28;20218;-67
2022/02/28 06:33:12;;;;;;;18.93;8.30;;;;;;;;;;5021373;28;20514;-67
2022/02/28 06:35:38;;;;;;;16.30;7.80;;;;;;;;;;5024970;28;20202;-67
2022/02/28 06:38:04;;;;;;;22.87;9.37;;;;;;;;;;5026054;28;20225;-67
2022/02/28 06:40:30;;;;;;;18.43;7.57;;;;;;;;;;5023016;28;20307;-67
2022/02/28 06:42:55;;;;;;;15.70;7.87;;;;;;;;;;5027670;28;20182;-67
2022/02/28 06:45:24;;;;;;;16.90;8.00;;;;;;;;;;5027115;28;20212;-68
2022/02/28 06:47:51;;;;;;;22.47;8.53;;;;;;;;;;5030184;28;20190;-67
2022/02/28 06:50:16;;;;;;;18.57;8.23;;;;;;;;;;5028553;28;20216;-67
2022/02/28 06:52:42;;;;;;;17.63;7.93;;;;;;;;;;5032726;28;20182;-67
2022/02/28 06:55:07;;;;;;;16.77;8.27;;;;;;;;;;5026308;28;20249;-67
2022/02/28 06:57:33;;;;;;;18.27;8.27;;;;;;;;;;5035712;28;20422;-67
2022/02/28 06:59:58;;;;;;;20.10;8.20;;;;;;;;;;5025798;28;20175;-68
2022/02/28 07:02:23;;;;;;;20.80;8.87;;;;;;;;;;5027109;28;20178;-67
2022/02/28 07:04:49;;;;;;;21.43;9.20;;;;;;;;;;5026691;28;20213;-67
2022/02/28 07:07:17;;;;;;;20.87;9.20;;;;;;;;;;5033490;28;20276;-67
2022/02/28 07:09:44;;;;;;;19.47;8.07;;;;;;;;;;5025332;28;20198;-68
2022/02/28 07:12:12;;;;;;;23.37;8.50;;;;;;;;;;5036310;28;20618;-67
2022/02/28 07:14:38;;;;;;;16.47;8.87;;;;;;;;;;5024887;28;20217;-67
2022/02/28 07:17:04;;;;;;;23.83;9.13;;;;;;;;;;5029737;28;20182;-67
2022/02/28 07:19:29;;;;;;;15.77;8.50;;;;;;;;;;5031486;28;20700;-67
2022/02/28 07:21:56;;;;;;;18.27;8.50;;;;;;;;;;5040600;28;20640;-68
2022/02/28 07:24:22;;;;;;;23.83;10.13;;;;;;;;;;5024061;28;20296;-67
2022/02/28 07:26:48;;;;;;;16.53;8.57;;;;;;;;;;5027794;28;20193;-67
2022/02/28 07:29:14;;;;;;;19.30;8.33;;;;;;;;;;5025314;28;20186;-67
2022/02/28 07:31:39;;;;;;;20.63;9.10;;;;;;;;;;5026223;28;20214;-67
2022/02/28 07:34:04;;;;;;;20.73;9.10;;;;;;;;;;5034743;28;20182;-67
2022/02/28 07:36:30;;;;;;;19.27;8.93;;;;;;;;;;5037391;28;20181;-67
2022/02/28 07:38:55;;;;;;;20.40;9.03;;;;;;;;;;5034477;28;20256;-67
2022/02/28 07:41:22;;;;;;;24.87;9.83;;;;;;;;;;5033216;28;20239;-67
2022/02/28 07:43:47;;;;;;;17.43;8.73;;;;;;;;;;5034973;28;20189;-68
2022/02/28 07:46:12;;;;;;;22.90;10.33;;;;;;;;;;5026484;28;20182;-68
2022/02/28 07:48:38;;;;;;;15.93;8.43;;;;;;;;;;5028722;28;20185;-68
2022/02/28 07:51:04;;;;;;;24.30;9.57;;;;;;;;;;5023376;28;20735;-68
2022/02/28 07:53:29;;;;;;;23.97;9.97;;;;;;;;;;5020673;28;20210;-67
2022/02/28 07:55:55;;;;;;;21.47;11.07;;;;;;;;;;5025318;28;20224;-68
2022/02/28 07:58:20;;;;;;;25.87;10.90;;;;;;;;;;5032558;28;20560;-67
2022/02/28 08:00:45;;;;;;;20.83;10.57;;;;;;;;;;5030403;28;20692;-67
2022/02/28 08:03:11;;;;;;;24.00;9.37;;;;;;;;;;5035904;28;20190;-67
2022/02/28 08:05:36;;;;;;;19.63;9.17;;;;;;;;;;5028808;28;20196;-67
2022/02/28 08:08:02;;;;;;;19.27;9.93;;;;;;;;;;5027469;28;20191;-68
2022/02/28 08:10:27;;;;;;;18.47;10.13;;;;;;;;;;5025132;28;20267;-67
2022/02/28 08:12:53;;;;;;;17.50;10.10;;;;;;;;;;5024962;28;20213;-67
2022/02/28 08:15:18;;;;;;;19.27;9.60;;;;;;;;;;5023404;28;20641;-68
2022/02/28 08:17:44;;;;;;;19.10;9.77;;;;;;;;;;5024579;28;20186;-67
2022/02/28 08:20:10;;;;;;;16.63;8.77;;;;;;;;;;5032647;28;20256;-67
2022/02/28 08:22:36;;;;;;;21.43;9.87;;;;;;;;;;5029578;28;20325;-67
2022/02/28 08:25:01;;;;;;;17.97;9.00;;;;;;;;;;5025004;28;20197;-67
2022/02/28 08:27:27;;;;;;;19.43;9.27;;;;;;;;;;5029094;28;20193;-67
2022/02/28 08:29:52;;;;;;;21.77;10.43;;;;;;;;;;5020367;28;20189;-67
2022/02/28 08:32:18;;;;;;;17.00;9.00;;;;;;;;;;5023266;28;20210;-67
2022/02/28 08:34:44;;;;;;;17.93;10.07;;;;;;;;;;5017700;28;20562;-67
2022/02/28 08:37:09;;;;;;;18.50;9.00;;;;;;;;;;5021961;28;20236;-67
2022/02/28 08:39:34;;;;;;;19.60;10.23;;;;;;;;;;5022962;28;20191;-67
2022/02/28 08:42:00;;;;;;;20.53;10.13;;;;;;;;;;5024040;28;20181;-67
2022/02/28 08:44:25;;;;;;;16.93;9.03;;;;;;;;;;5029436;28;20520;-67
2022/02/28 08:46:51;;;;;;;16.27;8.93;;;;;;;;;;5026727;28;20221;-67
2022/02/28 08:49:19;;;;;;;17.00;8.80;;;;;;;;;;5026400;28;20914;-67
2022/02/28 08:51:46;;;;;;;18.37;9.27;;;;;;;;;;5025993;28;20230;-67
2022/02/28 08:54:11;;;;;;;17.17;9.13;;;;;;;;;;5023467;28;20658;-67
2022/02/28 08:56:37;;;;;;;19.50;8.87;;;;;;;;;;5027031;28;20240;-67
2022/02/28 08:59:03;;;;;;;17.00;8.63;;;;;;;;;;5024441;28;20178;-67
2022/02/28 09:01:29;;;;;;;14.97;8.67;;;;;;;;;;5021785;28;20304;-67
2022/02/28 09:03:54;;;;;;;17.63;9.13;;;;;;;;;;5023510;28;20178;-67
2022/02/28 09:06:19;;;;;;;15.50;8.23;;;;;;;;;;5028441;28;20300;-67
2022/02/28 09:08:45;;;;;;;14.47;8.10;;;;;;;;;;5023274;28;20205;-67
2022/02/28 09:11:10;;;;;;;13.07;7.47;;;;;;;;;;5026612;28;20198;-67
2022/02/28 09:13:35;;;;;;;12.23;7.50;;;;;;;;;;5025934;28;20260;-67
2022/02/28 09:16:02;;;;;;;13.83;7.53;;;;;;;;;;5024809;28;20174;-66
2022/02/28 09:18:27;;;;;;;16.73;7.07;;;;;;;;;;5023835;28;20178;-66
2022/02/28 09:20:52;;;;;;;14.33;6.80;;;;;;;;;;5027638;28;20194;-66
2022/02/28 09:23:18;;;;;;;14.37;7.30;;;;;;;;;;5023932;28;20193;-66
2022/02/28 09:25:43;;;;;;;12.63;6.60;;;;;;;;;;5026737;28;20211;-66
2022/02/28 09:28:09;;;;;;;12.37;6.60;;;;;;;;;;5025084;28;20250;-66
2022/02/28 09:30:34;;;;;;;11.13;5.77;;;;;;;;;;5021730;28;20218;-67
2022/02/28 09:33:00;;;;;;;11.53;5.87;;;;;;;;;;5022935;28;20339;-66
2022/02/28 09:35:25;;;;;;;9.33;5.57;;;;;;;;;;5026962;28;20265;-66
2022/02/28 09:37:51;;;;;;;9.80;5.30;;;;;;;;;;5024152;28;20681;-67
2022/02/28 09:40:17;;;;;;;10.10;5.17;;;;;;;;;;5027473;28;20518;-67
2022/02/28 09:42:43;;;;;;;10.07;5.70;;;;;;;;;;5026125;28;20186;-67
2022/02/28 09:45:09;;;;;;;8.17;5.23;;;;;;;;;;5026369;28;20206;-67
2022/02/28 09:47:35;;;;;;;10.67;5.10;;;;;;;;;;5014712;28;20170;-67
2022/02/28 09:50:00;;;;;;;10.43;5.33;;;;;;;;;;5023266;28;20381;-66
2022/02/28 09:52:26;;;;;;;11.10;5.37;;;;;;;;;;5026259;28;20290;-67
2022/02/28 09:54:51;;;;;;;8.80;5.33;;;;;;;;;;5022497;28;20190;-67
2022/02/28 09:57:21;;;;;;;9.20;5.00;;;;;;;;;;5029211;28;20189;-67
2022/02/28 09:59:46;;;;;;;12.47;5.70;;;;;;;;;;5023608;28;20182;-67
2022/02/28 10:02:13;;;;;;;9.43;5.73;;;;;;;;;;5024893;28;20305;-67
2022/02/28 10:04:38;;;;;;;10.30;5.57;;;;;;;;;;5023762;28;20557;-67
2022/02/28 10:07:24;;;;;;;10.77;5.70;;;;;;;;;;5026753;28;20194;-67
2022/02/28 10:10:12;;;;;;;9.03;5.73;;;;;;;;;;5026705;28;20184;-67
2022/02/28 10:12:38;;;;;;;10.77;5.37;;;;;;;;;;5024242;28;20206;-67
2022/02/28 10:15:09;;;;;;;10.40;5.23;;;;;;;;;;5035250;28;20667;-67
2022/02/28 10:17:49;;;;;;;9.50;5.33;;;;;;;;;;5029020;28;20197;-67
2022/02/28 10:20:26;;;;;;;13.03;5.70;;;;;;;;;;5036948;28;20632;-67
2022/02/28 10:22:53;;;;;;;10.33;5.40;;;;;;;;;;5032776;28;20238;-67
2022/02/28 10:25:41;;;;;;;8.20;5.20;;;;;;;;;;5029146;28;20205;-68
2022/02/28 10:28:24;;;;;;;10.50;5.63;;;;;;;;;;5032420;28;20193;-67
2022/02/28 10:31:00;;;;;;;10.37;5.50;;;;;;;;;;5030307;28;20221;-67
2022/02/28 10:33:32;;;;;;;9.67;5.23;;;;;;;;;;5033868;28;20579;-67
2022/02/28 10:36:11;;;;;;;10.40;5.50;;;;;;;;;;5025330;28;20243;-67
2022/02/28 10:38:42;;;;;;;9.07;5.67;;;;;;;;;;5028854;28;20186;-67
2022/02/28 10:41:15;;;;;;;9.03;4.97;;;;;;;;;;5024977;28;20193;-67
2022/02/28 10:43:41;;;;;;;9.87;4.83;;;;;;;;;;5030679;28;20194;-67
2022/02/28 10:46:36;;;;;;;11.37;5.83;;;;;;;;;;5021898;28;20194;-67
2022/02/28 10:49:07;;;;;;;8.00;4.70;;;;;;;;;;5027976;28;20292;-67
2022/02/28 10:52:12;;;;;;;12.90;5.90;;;;;;;;;;5026249;28;20208;-67
2022/02/28 10:54:43;;;;;;;10.60;5.40;;;;;;;;;;5020148;28;20216;-67
2022/02/28 10:57:16;;;;;;;9.73;4.90;;;;;;;;;;5025937;28;20185;-67
2022/02/28 10:59:56;;;;;;;8.90;5.10;;;;;;;;;;5030061;28;20267;-67
2022/02/28 11:02:33;;;;;;;11.93;5.63;;;;;;;;;;5039636;28;20200;-67
2022/02/28 11:05:10;;;;;;;8.77;5.60;;;;;;;;;;5027364;28;20189;-67
2022/02/28 11:07:48;;;;;;;8.73;4.80;;;;;;;;;;5043391;28;20196;-67
2022/02/28 11:10:15;;;;;;;9.17;5.00;;;;;;;;;;5024121;28;20186;-66
2022/02/28 11:12:41;;;;;;;8.53;5.40;;;;;;;;;;5039214;28;20186;-67
2022/02/28 11:15:09;;;;;;;11.60;5.13;;;;;;;;;;5031203;28;20636;-67
2022/02/28 11:17:37;;;;;;;9.88;5.40;;;;;;;;;;5037297;28;20189;-67
2022/02/28 11:20:08;;;;;;;9.35;5.32;;;;;;;;;;5026902;28;20182;-67
2022/02/28 11:22:34;;;;;;;8.90;4.88;;;;;;;;;;5019695;28;20564;-67
2022/02/28 11:25:00;;;;;;;10.18;5.90;;;;;;;;;;5030050;28;20182;-67
2022/02/28 11:27:27;;;;;;;12.02;5.43;;;;;;;;;;5025377;28;20220;-67
2022/02/28 11:30:03;;;;;;;9.67;5.23;;;;;;;;;;5024157;28;20218;-67
2022/02/28 11:32:29;;;;;;;10.67;5.37;;;;;;;;;;5022420;28;20272;-67
2022/02/28 11:35:50;;;;;;;10.00;5.37;;;;;;;;;;5030389;28;20197;-67
2022/02/28 11:38:15;;;;;;;11.30;5.03;;;;;;;;;;5025144;28;20197;-68
2022/02/28 11:40:43;;;;;;;7.93;5.30;;;;;;;;;;5023775;28;20206;-67
2022/02/28 11:43:12;;;;;;;10.23;5.93;;;;;;;;;;5025413;28;20185;-67
2022/02/28 11:45:51;;;;;;;9.87;5.73;;;;;;;;;;5029452;28;20202;-67
2022/02/28 11:48:40;;;;;;;9.07;5.37;;;;;;;;;;5025621;28;20178;-67
2022/02/28 11:51:08;;;;;;;9.27;5.67;;;;;;;;;;5022884;28;20252;-67
2022/02/28 11:53:48;;;;;;;10.13;5.30;;;;;;;;;;5029676;28;20182;-67
2022/02/28 11:56:16;;;;;;;9.32;5.53;;;;;;;;;;5025222;28;20185;-67
2022/02/28 11:59:02;;;;;;;9.93;6.53;;;;;;;;;;5028621;28;20190;-67
2022/02/28 12:01:40;;;;;;;8.90;5.47;;;;;;;;;;5027730;28;20222;-67
2022/02/28 12:04:11;;;;;;;8.48;5.28;;;;;;;;;;5019559;28;20292;-67
2022/02/28 12:07:07;;;;;;;11.87;5.33;;;;;;;;;;5024680;28;20293;-67
2022/02/28 12:09:32;;;;;;;9.30;5.50;;;;;;;;;;5024077;28;20206;-67
2022/02/28 12:12:31;;;;;;;9.43;5.75;;;;;;;;;;5018946;28;20202;-67
2022/02/28 12:14:57;;;;;;;8.07;5.07;;;;;;;;;;5024752;28;20224;-67
2022/02/28 12:17:48;;;;;;;7.82;5.05;;;;;;;;;;5018846;28;20248;-67
2022/02/28 12:20:39;;;;;;;9.43;5.55;;;;;;;;;;5026104;28;20280;-67
2022/02/28 12:23:10;;;;;;;9.68;4.93;;;;;;;;;;5025860;28;20189;-67
2022/02/28 12:25:46;;;;;;;9.68;6.07;;;;;;;;;;5033379;28;20685;-67
2022/02/28 12:28:23;;;;;;;9.40;5.85;;;;;;;;;;5025662;28;20273;-67
2022/02/28 12:31:02;;;;;;;10.10;5.40;;;;;;;;;;5029350;28;20254;-67
2022/02/28 12:33:34;;;;;;;8.83;5.50;;;;;;;;;;5028066;28;20188;-67
2022/02/28 12:36:16;;;;;;;10.73;5.43;;;;;;;;;;5025240;28;20198;-67
2022/02/28 12:38:46;;;;;;;8.07;5.50;;;;;;;;;;5023649;28;20507;-67
2022/02/28 12:41:15;;;;;;;9.63;5.40;;;;;;;;;;5024925;28;20232;-67
2022/02/28 12:43:42;;;;;;;12.95;6.13;;;;;;;;;;5023315;28;20335;-67
2022/02/28 12:46:13;;;;;;;10.23;5.57;;;;;;;;;;5026157;28;20198;-67
2022/02/28 12:48:40;;;;;;;10.57;5.88;;;;;;;;;;5038327;28;20656;-67
2022/02/28 12:51:07;;;;;;;11.82;5.75;;;;;;;;;;5023522;28;20211;-67
2022/02/28 12:53:35;;;;;;;8.57;5.82;;;;;;;;;;5040417;28;20182;-67
2022/02/28 12:56:05;;;;;;;9.18;6.00;;;;;;;;;;5020675;28;20186;-67
2022/02/28 12:58:33;;;;;;;13.02;6.53;;;;;;;;;;5037450;28;20194;-67
2022/02/28 13:01:16;;;;;;;10.00;6.50;;;;;;;;;;5026664;28;20317;-67
2022/02/28 13:03:51;;;;;;;11.48;5.68;;;;;;;;;;5032690;28;20419;-67
2022/02/28 13:06:18;;;;;;;10.75;6.30;;;;;;;;;;5030265;28;20660;-67
2022/02/28 13:08:45;;;;;;;11.05;6.55;;;;;;;;;;5032353;28;20193;-67
2022/02/28 13:11:17;;;;;;;10.43;6.57;;;;;;;;;;5034714;28;20530;-67
2022/02/28 13:13:44;;;;;;;11.40;6.22;;;;;;;;;;5030197;28;20193;-67
2022/02/28 13:16:11;;;;;;;9.57;6.53;;;;;;;;;;5036853;28;20405;-67
2022/02/28 13:18:37;;;;;;;12.95;6.80;;;;;;;;;;5028696;28;20269;-67
2022/02/28 13:21:04;;;;;;;10.15;6.82;;;;;;;;;;5033727;28;20646;-67
2022/02/28 13:23:32;;;;;;;10.77;6.57;;;;;;;;;;5025472;28;20186;-67
2022/02/28 13:25:58;;;;;;;13.10;7.32;;;;;;;;;;5027063;28;20186;-67
2022/02/28 13:28:31;;;;;;;10.18;5.88;;;;;;;;;;5025245;28;20193;-67
2022/02/28 13:30:56;;;;;;;13.13;7.05;;;;;;;;;;5030719;28;20232;-67
2022/02/28 13:33:23;;;;;;;11.07;6.22;;;;;;;;;;5024029;28;20194;-67
2022/02/28 13:35:49;;;;;;;9.77;6.47;;;;;;;;;;5034458;28;20274;-67
2022/02/28 13:38:19;;;;;;;8.43;5.82;;;;;;;;;;5033383;28;20523;-67
2022/02/28 13:40:45;;;;;;;9.70;6.22;;;;;;;;;;5029296;28;20189;-67
2022/02/28 13:43:11;;;;;;;13.23;7.38;;;;;;;;;;5035337;28;20224;-67
2022/02/28 13:45:40;;;;;;;11.50;6.70;;;;;;;;;;5020523;28;20209;-68
2022/02/28 13:48:23;;;;;;;12.45;6.53;;;;;;;;;;5022835;28;20186;-68
2022/02/28 13:50:51;;;;;;;10.07;6.18;;;;;;;;;;5022453;28;20209;-67
2022/02/28 13:53:17;;;;;;;12.85;6.28;;;;;;;;;;5024915;28;20182;-68
2022/02/28 13:55:45;;;;;;;12.05;6.32;;;;;;;;;;5023051;28;20587;-68
2022/02/28 13:58:12;;;;;;;9.25;6.07;;;;;;;;;;5040707;28;20177;-66
2022/02/28 14:00:55;;;;;;;12.32;6.25;;;;;;;;;;5024977;28;20436;-67
2022/02/28 14:03:24;;;;;;;10.80;6.43;;;;;;;;;;5033864;28;20517;-68
2022/02/28 14:05:51;;;;;;;9.68;6.20;;;;;;;;;;5026285;28;20256;-67
2022/02/28 14:08:25;;;;;;;10.32;6.20;;;;;;;;;;5036851;28;20201;-68
2022/02/28 14:11:01;;;;;;;9.82;5.90;;;;;;;;;;5033015;28;20219;-68
2022/02/28 14:13:39;;;;;;;11.95;6.30;;;;;;;;;;5032228;28;20577;-67
2022/02/28 14:16:22;;;;;;;10.30;6.28;;;;;;;;;;5034413;28;20189;-67
2022/02/28 14:19:01;;;;;;;13.05;6.38;;;;;;;;;;5029431;28;20201;-67
2022/02/28 14:21:26;;;;;;;13.60;6.47;;;;;;;;;;5036772;28;20190;-67
2022/02/28 14:23:53;;;;;;;11.70;6.30;;;;;;;;;;5026029;28;20196;-67
2022/02/28 14:26:19;;;;;;;12.38;6.80;;;;;;;;;;5038772;28;20231;-67
2022/02/28 14:28:45;;;;;;;13.65;6.18;;;;;;;;;;5026778;28;20198;-67
2022/02/28 14:31:15;;;;;;;11.77;6.28;;;;;;;;;;5026031;28;20546;-67
2022/02/28 14:33:51;;;;;;;10.50;6.07;;;;;;;;;;5031784;28;20185;-67
2022/02/28 14:36:19;;;;;;;8.85;6.10;;;;;;;;;;5030193;28;20512;-67